LSGG Airport Information

Runway Information
Runway 05 Length 12795 ft width 164 ft
Elevation 1411 ft Threshold 1082 ft Heading 46
Runway 23 Length 12795 ft Width 164 ft
Elevation 1365 ft Threshold 0 ft Heading 226
Runway 05L Length 2700 ft width 98 ft
Elevation 1378 ft Threshold 613 ft Heading 46
Runway 23R Length 2700 ft Width 98 ft
Elevation 1393 ft Threshold 994 ft Heading 226
Airport Frequencies
Type APP Name APP Frequency 120.3 MHZ
Type ARR Name ARR Frequency 136.25 MHZ
Type ATIS Name ATIS Frequency 135.575 MHZ
Type DEP Name DEP Frequency 119.525 MHZ
Type GND Name GND Frequency 121.675 MHZ
Type GTE Name APN Frequency 121.75 MHZ
Type TWR Name TWR Frequency 118.7 MHZ
Airport Navaids
Type NDB Name Gland Frequency 375 KHZ
Type VOR-DME Name Geneva Cointrin Frequency 115750 KHZ
Type VOR-DME Name Passeiry Frequency 116600 KHZ
Airport Weather Information & NOTAM
ADDS - METARS form results

(2213 UTC 18 February 2019)
Data provider http://aviationweather.gov/metar/data/
 
METAR text: LSGG 182150Z VRB01KT CAVOK 06/01 Q1022 NOSIG
Conditions at: LSGG (GENEVA/COINTRIN , CH) observed 2150 UTC 18 February 2019
Temperature: 6.0°C (43°F)
Dewpoint: 1.0°C (34°F) [RH = 70%]
Pressure (altimeter): 30.18 inches Hg (1022.0 mb)
Winds: variable direction winds at 1 MPH (1 knots; 0.5 m/s)
Visibility: 6 or more miles (10+ km)
Ceiling: ceiling and visibility are OK
Clouds: unknown
Weather: no significant weather observed at this time

METAR text: LSGG 182120Z 20009KT CAVOK 08/02 Q1022 NOSIG
Conditions at: LSGG (GENEVA/COINTRIN , CH) observed 2120 UTC 18 February 2019
Temperature: 8.0°C (46°F)
Dewpoint: 2.0°C (36°F) [RH = 66%]
Pressure (altimeter): 30.18 inches Hg (1022.0 mb)
Winds: from the SSW (200 degrees) at 10 MPH (9 knots; 4.6 m/s)
Visibility: 6 or more miles (10+ km)
Ceiling: ceiling and visibility are OK
Clouds: unknown
Weather: no significant weather observed at this time

Forecast for: LSGG (GENEVA/COINTRIN , CH)
Text: TAF LSGG 182025Z 1821/2003 21005KT CAVOK TX11/1915Z TNM02/1906Z
Forecast period: 2100 UTC 18 February 2019 to 0300 UTC 20 February 2019
Forecast type: FROM: standard forecast or significant change
Winds: from the SSW (210 degrees) at 6 MPH (5 knots; 2.6 m/s)
Visibility: 6 or more miles 10+ km)
Ceiling: unknown
Clouds: missing
Weather: no significant weather forecast for this period